Terminal Aerodrome Forecast
Issued by NWS Louisville, KY

Home | Current Version | Previous Version | Text Only | Print | Product List | Glossary On
Versions: 1 2 3 4 5 6 7 8 9 10 11 12 13 14 15 16 17 18
000
FTUS43 KLMK 282300
TAFBWG
TAF
KBWG 282320Z 2900/2924 VRB03KT P6SM FEW040 SCT120 BKN250
     FM290600 00000KT 4SM BR BKN250
      TEMPO 2908/2912 2SM BR
     FM291400 VRB05KT P6SM SCT040 BKN250 PROB30 2918/2924 3SM -TSRA
      BKN025CB=

USA.gov is the U.S. government's official web portal to all federal, state and local government web resources and services.